sensor_id;sensor_type;location;lat;lon;timestamp;temperature;humidity
22173;DHT22;11252;50.596;17.648;2022-07-29T00:01:14;15.40;88.80
22173;DHT22;11252;50.596;17.648;2022-07-29T00:03:45;15.40;88.40
22173;DHT22;11252;50.596;17.648;2022-07-29T00:06:13;15.30;88.20
22173;DHT22;11252;50.596;17.648;2022-07-29T00:08:41;15.40;88.20
22173;DHT22;11252;50.596;17.648;2022-07-29T00:11:09;15.30;88.20
22173;DHT22;11252;50.596;17.648;2022-07-29T00:13:37;15.30;88.20
22173;DHT22;11252;50.596;17.648;2022-07-29T00:16:05;15.30;88.90
22173;DHT22;11252;50.596;17.648;2022-07-29T00:18:33;15.30;88.80
22173;DHT22;11252;50.596;17.648;2022-07-29T00:21:00;15.20;89.50
22173;DHT22;11252;50.596;17.648;2022-07-29T00:23:31;15.10;89.60
22173;DHT22;11252;50.596;17.648;2022-07-29T00:26:02;15.10;89.70
22173;DHT22;11252;50.596;17.648;2022-07-29T00:28:30;15.00;90.60
22173;DHT22;11252;50.596;17.648;2022-07-29T00:30:58;15.00;90.70
22173;DHT22;11252;50.596;17.648;2022-07-29T00:33:26;14.90;90.70
22173;DHT22;11252;50.596;17.648;2022-07-29T00:35:53;14.90;90.30
22173;DHT22;11252;50.596;17.648;2022-07-29T00:38:24;14.90;89.90
22173;DHT22;11252;50.596;17.648;2022-07-29T00:40:51;14.90;89.70
22173;DHT22;11252;50.596;17.648;2022-07-29T00:43:19;14.90;89.30
22173;DHT22;11252;50.596;17.648;2022-07-29T00:45:47;14.90;89.20
22173;DHT22;11252;50.596;17.648;2022-07-29T00:48:20;14.90;88.90
22173;DHT22;11252;50.596;17.648;2022-07-29T00:50:49;14.90;88.90
22173;DHT22;11252;50.596;17.648;2022-07-29T00:53:17;14.90;88.90
22173;DHT22;11252;50.596;17.648;2022-07-29T00:55:47;14.90;89.20
22173;DHT22;11252;50.596;17.648;2022-07-29T00:58:18;14.90;89.50
22173;DHT22;11252;50.596;17.648;2022-07-29T01:00:56;14.80;89.80
22173;DHT22;11252;50.596;17.648;2022-07-29T01:03:25;14.70;90.40
22173;DHT22;11252;50.596;17.648;2022-07-29T01:05:54;14.60;90.10
22173;DHT22;11252;50.596;17.648;2022-07-29T01:08:25;14.60;90.70
22173;DHT22;11252;50.596;17.648;2022-07-29T01:10:54;14.60;90.30
22173;DHT22;11252;50.596;17.648;2022-07-29T01:13:23;14.60;90.30
22173;DHT22;11252;50.596;17.648;2022-07-29T01:16:00;14.60;90.80
22173;DHT22;11252;50.596;17.648;2022-07-29T01:18:36;14.50;90.20
22173;DHT22;11252;50.596;17.648;2022-07-29T01:29:52;14.40;91.10
22173;DHT22;11252;50.596;17.648;2022-07-29T01:32:26;14.30;91.60
22173;DHT22;11252;50.596;17.648;2022-07-29T01:35:06;14.20;92.00
22173;DHT22;11252;50.596;17.648;2022-07-29T01:38:05;14.10;91.80
22173;DHT22;11252;50.596;17.648;2022-07-29T01:40:58;14.10;92.10
22173;DHT22;11252;50.596;17.648;2022-07-29T01:43:44;14.00;92.20
22173;DHT22;11252;50.596;17.648;2022-07-29T01:46:18;14.10;92.00
22173;DHT22;11252;50.596;17.648;2022-07-29T01:49:00;14.00;92.20
22173;DHT22;11252;50.596;17.648;2022-07-29T01:51:35;14.00;92.20
22173;DHT22;11252;50.596;17.648;2022-07-29T01:54:28;14.00;92.20
22173;DHT22;11252;50.596;17.648;2022-07-29T01:57:02;14.00;92.20
22173;DHT22;11252;50.596;17.648;2022-07-29T01:59:37;14.00;92.20
22173;DHT22;11252;50.596;17.648;2022-07-29T02:02:08;14.00;92.20
22173;DHT22;11252;50.596;17.648;2022-07-29T02:04:38;14.00;92.20
22173;DHT22;11252;50.596;17.648;2022-07-29T02:07:10;14.00;92.20
22173;DHT22;11252;50.596;17.648;2022-07-29T02:09:41;13.90;92.20
22173;DHT22;11252;50.596;17.648;2022-07-29T02:12:11;13.90;92.20
22173;DHT22;11252;50.596;17.648;2022-07-29T02:14:45;13.90;92.20
22173;DHT22;11252;50.596;17.648;2022-07-29T02:17:21;13.80;92.20
22173;DHT22;11252;50.596;17.648;2022-07-29T02:19:50;13.80;92.20
22173;DHT22;11252;50.596;17.648;2022-07-29T02:22:19;13.70;92.20
22173;DHT22;11252;50.596;17.648;2022-07-29T02:24:50;13.70;92.20
22173;DHT22;11252;50.596;17.648;2022-07-29T02:27:19;13.70;92.20
22173;DHT22;11252;50.596;17.648;2022-07-29T02:29:50;13.60;92.20
22173;DHT22;11252;50.596;17.648;2022-07-29T02:32:20;13.60;92.20
22173;DHT22;11252;50.596;17.648;2022-07-29T02:34:51;13.60;92.20
22173;DHT22;11252;50.596;17.648;2022-07-29T02:37:19;13.50;92.20
22173;DHT22;11252;50.596;17.648;2022-07-29T02:39:48;13.50;92.20
22173;DHT22;11252;50.596;17.648;2022-07-29T02:42:26;13.40;92.20
22173;DHT22;11252;50.596;17.648;2022-07-29T02:44:56;13.40;92.20
22173;DHT22;11252;50.596;17.648;2022-07-29T02:47:30;13.40;92.20
22173;DHT22;11252;50.596;17.648;2022-07-29T02:50:21;13.30;92.20
22173;DHT22;11252;50.596;17.648;2022-07-29T02:52:57;13.30;92.20
22173;DHT22;11252;50.596;17.648;2022-07-29T02:55:33;13.30;92.20
22173;DHT22;11252;50.596;17.648;2022-07-29T02:58:21;13.20;92.20
22173;DHT22;11252;50.596;17.648;2022-07-29T03:01:04;13.00;92.20
22173;DHT22;11252;50.596;17.648;2022-07-29T03:03:39;12.90;92.20
22173;DHT22;11252;50.596;17.648;2022-07-29T03:06:09;12.90;92.20
22173;DHT22;11252;50.596;17.648;2022-07-29T03:09:00;12.90;92.20
22173;DHT22;11252;50.596;17.648;2022-07-29T03:11:29;12.90;92.20
22173;DHT22;11252;50.596;17.648;2022-07-29T03:14:20;13.00;92.20
22173;DHT22;11252;50.596;17.648;2022-07-29T03:16:49;12.90;92.20
22173;DHT22;11252;50.596;17.648;2022-07-29T03:19:18;13.00;92.20
22173;DHT22;11252;50.596;17.648;2022-07-29T03:21:47;13.00;92.20
22173;DHT22;11252;50.596;17.648;2022-07-29T03:24:28;13.00;92.20
22173;DHT22;11252;50.596;17.648;2022-07-29T03:26:56;12.90;92.20
22173;DHT22;11252;50.596;17.648;2022-07-29T03:29:24;12.80;92.20
22173;DHT22;11252;50.596;17.648;2022-07-29T03:32:01;12.70;92.20
22173;DHT22;11252;50.596;17.648;2022-07-29T03:34:35;12.70;92.20
22173;DHT22;11252;50.596;17.648;2022-07-29T03:37:03;12.70;92.20
22173;DHT22;11252;50.596;17.648;2022-07-29T03:39:35;12.70;92.20
22173;DHT22;11252;50.596;17.648;2022-07-29T03:42:05;12.70;92.20
22173;DHT22;11252;50.596;17.648;2022-07-29T03:44:35;12.80;92.20
22173;DHT22;11252;50.596;17.648;2022-07-29T03:47:06;12.80;92.20
22173;DHT22;11252;50.596;17.648;2022-07-29T03:49:36;12.90;92.20
22173;DHT22;11252;50.596;17.648;2022-07-29T03:52:05;12.90;92.20
22173;DHT22;11252;50.596;17.648;2022-07-29T03:54:35;12.90;92.20
22173;DHT22;11252;50.596;17.648;2022-07-29T03:57:04;13.00;92.20
22173;DHT22;11252;50.596;17.648;2022-07-29T03:59:33;13.10;92.20
22173;DHT22;11252;50.596;17.648;2022-07-29T04:02:03;13.10;92.20
22173;DHT22;11252;50.596;17.648;2022-07-29T04:04:33;13.20;92.20
22173;DHT22;11252;50.596;17.648;2022-07-29T04:07:03;13.20;92.20
22173;DHT22;11252;50.596;17.648;2022-07-29T04:09:30;13.30;92.20
22173;DHT22;11252;50.596;17.648;2022-07-29T04:11:58;13.30;92.20
22173;DHT22;11252;50.596;17.648;2022-07-29T04:14:31;13.30;92.20
22173;DHT22;11252;50.596;17.648;2022-07-29T04:17:00;13.30;92.20
22173;DHT22;11252;50.596;17.648;2022-07-29T04:19:27;13.30;92.20
22173;DHT22;11252;50.596;17.648;2022-07-29T04:21:57;13.30;92.20
22173;DHT22;11252;50.596;17.648;2022-07-29T04:24:24;13.40;92.20
22173;DHT22;11252;50.596;17.648;2022-07-29T04:26:52;13.50;92.20
22173;DHT22;11252;50.596;17.648;2022-07-29T04:29:21;13.60;92.20
22173;DHT22;11252;50.596;17.648;2022-07-29T04:31:49;13.70;92.20
22173;DHT22;11252;50.596;17.648;2022-07-29T04:34:17;13.80;92.20
22173;DHT22;11252;50.596;17.648;2022-07-29T04:36:47;13.90;92.20
22173;DHT22;11252;50.596;17.648;2022-07-29T04:39:15;14.10;92.20
22173;DHT22;11252;50.596;17.648;2022-07-29T04:41:49;14.20;92.20
22173;DHT22;11252;50.596;17.648;2022-07-29T04:44:23;14.40;92.20
22173;DHT22;11252;50.596;17.648;2022-07-29T04:46:55;14.60;92.20
22173;DHT22;11252;50.596;17.648;2022-07-29T04:49:24;14.90;92.20
22173;DHT22;11252;50.596;17.648;2022-07-29T04:51:53;15.10;92.20
22173;DHT22;11252;50.596;17.648;2022-07-29T04:54:21;15.40;92.10
22173;DHT22;11252;50.596;17.648;2022-07-29T04:56:50;15.70;90.30
22173;DHT22;11252;50.596;17.648;2022-07-29T04:59:18;16.00;89.70
22173;DHT22;11252;50.596;17.648;2022-07-29T05:01:46;16.30;88.30
22173;DHT22;11252;50.596;17.648;2022-07-29T05:04:13;16.60;87.40
22173;DHT22;11252;50.596;17.648;2022-07-29T05:06:45;17.00;85.50
22173;DHT22;11252;50.596;17.648;2022-07-29T05:09:13;17.30;84.80
22173;DHT22;11252;50.596;17.648;2022-07-29T05:11:42;17.60;83.70
22173;DHT22;11252;50.596;17.648;2022-07-29T05:14:10;18.00;82.80
22173;DHT22;11252;50.596;17.648;2022-07-29T05:16:37;18.40;81.10
22173;DHT22;11252;50.596;17.648;2022-07-29T05:19:07;18.70;79.80
22173;DHT22;11252;50.596;17.648;2022-07-29T05:21:40;19.00;78.90
22173;DHT22;11252;50.596;17.648;2022-07-29T05:24:08;19.20;78.40
22173;DHT22;11252;50.596;17.648;2022-07-29T05:26:36;19.40;78.00
22173;DHT22;11252;50.596;17.648;2022-07-29T05:29:03;19.60;77.50
22173;DHT22;11252;50.596;17.648;2022-07-29T05:31:54;19.90;76.50
22173;DHT22;11252;50.596;17.648;2022-07-29T05:34:22;20.20;76.10
22173;DHT22;11252;50.596;17.648;2022-07-29T05:36:50;20.20;76.00
22173;DHT22;11252;50.596;17.648;2022-07-29T05:39:18;20.30;75.40
22173;DHT22;11252;50.596;17.648;2022-07-29T05:41:45;20.50;75.10
22173;DHT22;11252;50.596;17.648;2022-07-29T05:44:17;20.80;74.50
22173;DHT22;11252;50.596;17.648;2022-07-29T05:46:45;21.00;74.50
22173;DHT22;11252;50.596;17.648;2022-07-29T05:49:15;21.20;73.90
22173;DHT22;11252;50.596;17.648;2022-07-29T05:51:53;21.10;73.50
22173;DHT22;11252;50.596;17.648;2022-07-29T05:54:21;21.00;73.90
22173;DHT22;11252;50.596;17.648;2022-07-29T05:56:50;20.90;74.40
22173;DHT22;11252;50.596;17.648;2022-07-29T05:59:17;21.10;74.00
22173;DHT22;11252;50.596;17.648;2022-07-29T06:01:45;21.30;73.30
22173;DHT22;11252;50.596;17.648;2022-07-29T06:04:13;21.50;73.10
22173;DHT22;11252;50.596;17.648;2022-07-29T06:06:40;21.70;73.00
22173;DHT22;11252;50.596;17.648;2022-07-29T06:09:11;22.00;72.20
22173;DHT22;11252;50.596;17.648;2022-07-29T06:11:40;22.20;72.30
22173;DHT22;11252;50.596;17.648;2022-07-29T06:14:07;22.40;71.60
22173;DHT22;11252;50.596;17.648;2022-07-29T06:16:35;22.60;71.40
22173;DHT22;11252;50.596;17.648;2022-07-29T06:19:03;22.70;71.50
22173;DHT22;11252;50.596;17.648;2022-07-29T06:21:31;22.90;71.00
22173;DHT22;11252;50.596;17.648;2022-07-29T06:23:59;23.20;70.70
22173;DHT22;11252;50.596;17.648;2022-07-29T06:26:29;23.30;70.70
22173;DHT22;11252;50.596;17.648;2022-07-29T06:29:02;23.60;70.00
22173;DHT22;11252;50.596;17.648;2022-07-29T06:31:33;23.70;69.50
22173;DHT22;11252;50.596;17.648;2022-07-29T06:34:01;23.70;69.80
22173;DHT22;11252;50.596;17.648;2022-07-29T06:36:29;23.80;70.00
22173;DHT22;11252;50.596;17.648;2022-07-29T06:38:57;24.00;69.60
22173;DHT22;11252;50.596;17.648;2022-07-29T06:41:25;24.40;68.90
22173;DHT22;11252;50.596;17.648;2022-07-29T06:43:53;24.60;68.60
22173;DHT22;11252;50.596;17.648;2022-07-29T06:46:33;24.70;68.30
22173;DHT22;11252;50.596;17.648;2022-07-29T06:49:04;24.50;68.70
22173;DHT22;11252;50.596;17.648;2022-07-29T06:51:33;24.50;68.50
22173;DHT22;11252;50.596;17.648;2022-07-29T06:54:02;24.50;68.60
22173;DHT22;11252;50.596;17.648;2022-07-29T06:56:34;24.40;69.00
22173;DHT22;11252;50.596;17.648;2022-07-29T06:59:07;24.30;69.30
22173;DHT22;11252;50.596;17.648;2022-07-29T07:01:40;24.20;69.60
22173;DHT22;11252;50.596;17.648;2022-07-29T07:04:09;24.10;69.30
22173;DHT22;11252;50.596;17.648;2022-07-29T07:06:37;24.00;69.80
22173;DHT22;11252;50.596;17.648;2022-07-29T07:09:06;23.80;69.80
22173;DHT22;11252;50.596;17.648;2022-07-29T07:11:34;23.80;70.20
22173;DHT22;11252;50.596;17.648;2022-07-29T07:14:10;23.70;70.40
22173;DHT22;11252;50.596;17.648;2022-07-29T07:16:38;23.70;70.40
22173;DHT22;11252;50.596;17.648;2022-07-29T07:19:06;23.70;70.50
22173;DHT22;11252;50.596;17.648;2022-07-29T07:21:34;23.80;70.70
22173;DHT22;11252;50.596;17.648;2022-07-29T07:24:03;23.80;70.80
22173;DHT22;11252;50.596;17.648;2022-07-29T07:26:30;24.10;70.40
22173;DHT22;11252;50.596;17.648;2022-07-29T07:28:58;24.10;70.40
22173;DHT22;11252;50.596;17.648;2022-07-29T07:31:28;24.10;70.20
22173;DHT22;11252;50.596;17.648;2022-07-29T07:33:56;24.20;70.20
22173;DHT22;11252;50.596;17.648;2022-07-29T07:36:23;24.20;70.30
22173;DHT22;11252;50.596;17.648;2022-07-29T07:38:51;24.20;70.30
22173;DHT22;11252;50.596;17.648;2022-07-29T07:41:20;24.30;70.10
22173;DHT22;11252;50.596;17.648;2022-07-29T07:43:48;24.40;69.90
22173;DHT22;11252;50.596;17.648;2022-07-29T07:46:16;24.40;69.70
22173;DHT22;11252;50.596;17.648;2022-07-29T07:48:44;24.40;69.90
22173;DHT22;11252;50.596;17.648;2022-07-29T07:51:12;24.40;69.70
22173;DHT22;11252;50.596;17.648;2022-07-29T07:53:40;24.40;69.70
22173;DHT22;11252;50.596;17.648;2022-07-29T07:56:08;24.40;69.90
22173;DHT22;11252;50.596;17.648;2022-07-29T07:58:43;24.40;70.20
22173;DHT22;11252;50.596;17.648;2022-07-29T08:01:11;24.30;70.10
22173;DHT22;11252;50.596;17.648;2022-07-29T08:03:39;24.30;70.20
22173;DHT22;11252;50.596;17.648;2022-07-29T08:06:06;24.30;70.40
22173;DHT22;11252;50.596;17.648;2022-07-29T08:08:34;24.30;70.90
22173;DHT22;11252;50.596;17.648;2022-07-29T08:11:03;24.30;70.90
22173;DHT22;11252;50.596;17.648;2022-07-29T08:13:36;24.30;71.00
22173;DHT22;11252;50.596;17.648;2022-07-29T08:16:05;24.20;71.60
22173;DHT22;11252;50.596;17.648;2022-07-29T08:18:44;24.30;71.40
22173;DHT22;11252;50.596;17.648;2022-07-29T08:21:14;24.40;71.40
22173;DHT22;11252;50.596;17.648;2022-07-29T08:23:44;24.30;71.60
22173;DHT22;11252;50.596;17.648;2022-07-29T08:26:23;24.30;71.70
22173;DHT22;11252;50.596;17.648;2022-07-29T08:28:51;24.30;71.50
22173;DHT22;11252;50.596;17.648;2022-07-29T08:31:18;24.20;71.20
22173;DHT22;11252;50.596;17.648;2022-07-29T08:33:46;24.10;71.40
22173;DHT22;11252;50.596;17.648;2022-07-29T08:36:14;24.10;71.90
22173;DHT22;11252;50.596;17.648;2022-07-29T08:38:42;24.00;72.00
22173;DHT22;11252;50.596;17.648;2022-07-29T08:41:10;23.90;72.50
22173;DHT22;11252;50.596;17.648;2022-07-29T08:43:39;23.90;72.80
22173;DHT22;11252;50.596;17.648;2022-07-29T08:46:11;23.90;72.60
22173;DHT22;11252;50.596;17.648;2022-07-29T08:48:41;23.90;72.90
22173;DHT22;11252;50.596;17.648;2022-07-29T08:51:13;23.90;72.60
22173;DHT22;11252;50.596;17.648;2022-07-29T08:53:44;23.90;72.80
22173;DHT22;11252;50.596;17.648;2022-07-29T08:56:16;23.90;73.00
22173;DHT22;11252;50.596;17.648;2022-07-29T08:58:46;24.00;72.70
22173;DHT22;11252;50.596;17.648;2022-07-29T09:01:24;23.90;72.60
22173;DHT22;11252;50.596;17.648;2022-07-29T09:04:16;24.00;72.60
22173;DHT22;11252;50.596;17.648;2022-07-29T09:06:49;24.00;72.60
22173;DHT22;11252;50.596;17.648;2022-07-29T09:09:19;24.10;72.60
22173;DHT22;11252;50.596;17.648;2022-07-29T09:11:47;24.00;72.30
22173;DHT22;11252;50.596;17.648;2022-07-29T09:14:18;23.90;72.50
22173;DHT22;11252;50.596;17.648;2022-07-29T09:16:52;23.90;72.60
22173;DHT22;11252;50.596;17.648;2022-07-29T09:19:27;23.90;72.40
22173;DHT22;11252;50.596;17.648;2022-07-29T09:21:58;23.80;72.60
22173;DHT22;11252;50.596;17.648;2022-07-29T09:24:42;23.80;72.50
22173;DHT22;11252;50.596;17.648;2022-07-29T09:27:22;23.70;72.60
22173;DHT22;11252;50.596;17.648;2022-07-29T09:30:16;23.70;72.90
22173;DHT22;11252;50.596;17.648;2022-07-29T09:33:00;23.70;73.20
22173;DHT22;11252;50.596;17.648;2022-07-29T09:35:29;23.60;73.70
22173;DHT22;11252;50.596;17.648;2022-07-29T09:38:10;23.60;74.30
22173;DHT22;11252;50.596;17.648;2022-07-29T09:40:38;23.60;74.40
22173;DHT22;11252;50.596;17.648;2022-07-29T09:43:13;23.50;74.90
22173;DHT22;11252;50.596;17.648;2022-07-29T09:45:41;23.50;75.40
22173;DHT22;11252;50.596;17.648;2022-07-29T09:48:21;23.50;76.30
22173;DHT22;11252;50.596;17.648;2022-07-29T09:50:50;23.40;76.60
22173;DHT22;11252;50.596;17.648;2022-07-29T09:53:32;23.40;77.30
22173;DHT22;11252;50.596;17.648;2022-07-29T09:56:01;23.50;78.30
22173;DHT22;11252;50.596;17.648;2022-07-29T09:58:34;23.60;76.10
22173;DHT22;11252;50.596;17.648;2022-07-29T10:01:03;23.60;75.90
22173;DHT22;11252;50.596;17.648;2022-07-29T10:03:31;23.80;76.00
22173;DHT22;11252;50.596;17.648;2022-07-29T10:06:07;24.00;75.00
22173;DHT22;11252;50.596;17.648;2022-07-29T10:08:36;24.20;74.60
22173;DHT22;11252;50.596;17.648;2022-07-29T10:11:16;24.30;74.00
22173;DHT22;11252;50.596;17.648;2022-07-29T10:13:46;24.20;73.80
22173;DHT22;11252;50.596;17.648;2022-07-29T10:16:16;24.20;74.40
22173;DHT22;11252;50.596;17.648;2022-07-29T10:18:45;24.50;74.40
22173;DHT22;11252;50.596;17.648;2022-07-29T10:21:14;24.90;73.60
22173;DHT22;11252;50.596;17.648;2022-07-29T10:24:01;24.90;73.00
22173;DHT22;11252;50.596;17.648;2022-07-29T10:26:30;24.90;73.20
22173;DHT22;11252;50.596;17.648;2022-07-29T10:28:57;25.10;73.30
22173;DHT22;11252;50.596;17.648;2022-07-29T10:31:34;25.60;71.90
22173;DHT22;11252;50.596;17.648;2022-07-29T10:43:31;27.10;68.00
22173;DHT22;11252;50.596;17.648;2022-07-29T10:46:04;27.00;68.60
22173;DHT22;11252;50.596;17.648;2022-07-29T10:48:33;27.20;68.40
22173;DHT22;11252;50.596;17.648;2022-07-29T10:51:04;27.40;68.10
22173;DHT22;11252;50.596;17.648;2022-07-29T10:53:54;27.70;67.80
22173;DHT22;11252;50.596;17.648;2022-07-29T11:01:48;29.10;64.80
22173;DHT22;11252;50.596;17.648;2022-07-29T11:07:12;29.00;64.80
22173;DHT22;11252;50.596;17.648;2022-07-29T11:09:43;29.10;64.50
22173;DHT22;11252;50.596;17.648;2022-07-29T11:15:21;29.10;64.60
22173;DHT22;11252;50.596;17.648;2022-07-29T11:23:31;29.30;63.60
22173;DHT22;11252;50.596;17.648;2022-07-29T11:31:39;28.00;66.10
22173;DHT22;11252;50.596;17.648;2022-07-29T11:34:31;27.60;67.10
22173;DHT22;11252;50.596;17.648;2022-07-29T11:48:05;26.30;71.40
22173;DHT22;11252;50.596;17.648;2022-07-29T11:50:56;25.90;73.70
22173;DHT22;11252;50.596;17.648;2022-07-29T11:53:25;25.40;75.90
22173;DHT22;11252;50.596;17.648;2022-07-29T11:55:59;25.20;78.00
22173;DHT22;11252;50.596;17.648;2022-07-29T11:58:31;24.80;78.00
22173;DHT22;11252;50.596;17.648;2022-07-29T12:01:00;24.30;79.60
22173;DHT22;11252;50.596;17.648;2022-07-29T12:03:32;24.10;81.00
22173;DHT22;11252;50.596;17.648;2022-07-29T12:06:12;23.80;83.00
22173;DHT22;11252;50.596;17.648;2022-07-29T12:08:43;23.70;84.60
22173;DHT22;11252;50.596;17.648;2022-07-29T12:11:19;23.40;84.80
22173;DHT22;11252;50.596;17.648;2022-07-29T12:13:52;23.30;84.60
22173;DHT22;11252;50.596;17.648;2022-07-29T12:16:22;23.20;84.10
22173;DHT22;11252;50.596;17.648;2022-07-29T12:19:00;23.20;84.40
22173;DHT22;11252;50.596;17.648;2022-07-29T12:21:50;23.30;84.80
22173;DHT22;11252;50.596;17.648;2022-07-29T12:24:23;23.50;84.40
22173;DHT22;11252;50.596;17.648;2022-07-29T12:26:57;23.50;85.80
22173;DHT22;11252;50.596;17.648;2022-07-29T12:29:26;23.50;85.50
22173;DHT22;11252;50.596;17.648;2022-07-29T12:32:02;23.40;85.80
22173;DHT22;11252;50.596;17.648;2022-07-29T12:34:40;23.40;84.50
22173;DHT22;11252;50.596;17.648;2022-07-29T12:37:09;23.60;84.10
22173;DHT22;11252;50.596;17.648;2022-07-29T12:39:38;23.80;82.80
22173;DHT22;11252;50.596;17.648;2022-07-29T12:42:15;23.90;82.90
22173;DHT22;11252;50.596;17.648;2022-07-29T12:44:49;23.90;82.10
22173;DHT22;11252;50.596;17.648;2022-07-29T12:47:19;23.90;82.10
22173;DHT22;11252;50.596;17.648;2022-07-29T12:49:48;24.10;82.10
22173;DHT22;11252;50.596;17.648;2022-07-29T12:52:33;24.20;81.90
22173;DHT22;11252;50.596;17.648;2022-07-29T12:55:01;24.30;81.70
22173;DHT22;11252;50.596;17.648;2022-07-29T12:57:30;24.30;82.10
22173;DHT22;11252;50.596;17.648;2022-07-29T13:00:11;24.30;81.50
22173;DHT22;11252;50.596;17.648;2022-07-29T13:02:42;24.30;82.70
22173;DHT22;11252;50.596;17.648;2022-07-29T13:05:11;24.30;83.30
22173;DHT22;11252;50.596;17.648;2022-07-29T13:07:40;24.30;82.60
22173;DHT22;11252;50.596;17.648;2022-07-29T13:10:23;24.30;81.80
22173;DHT22;11252;50.596;17.648;2022-07-29T13:13:07;24.30;82.70
22173;DHT22;11252;50.596;17.648;2022-07-29T13:15:39;24.30;84.20
22173;DHT22;11252;50.596;17.648;2022-07-29T13:18:29;24.10;84.10
22173;DHT22;11252;50.596;17.648;2022-07-29T13:20:58;23.90;85.50
22173;DHT22;11252;50.596;17.648;2022-07-29T13:23:37;23.50;85.90
22173;DHT22;11252;50.596;17.648;2022-07-29T13:26:08;23.20;87.90
22173;DHT22;11252;50.596;17.648;2022-07-29T13:28:36;23.00;89.70
22173;DHT22;11252;50.596;17.648;2022-07-29T13:31:05;22.70;91.50
22173;DHT22;11252;50.596;17.648;2022-07-29T13:33:34;22.40;92.20
22173;DHT22;11252;50.596;17.648;2022-07-29T13:36:15;22.20;92.20
22173;DHT22;11252;50.596;17.648;2022-07-29T13:38:44;22.10;92.20
22173;DHT22;11252;50.596;17.648;2022-07-29T13:41:12;22.10;92.20
22173;DHT22;11252;50.596;17.648;2022-07-29T13:43:39;22.10;92.20
22173;DHT22;11252;50.596;17.648;2022-07-29T13:46:07;22.10;92.20
22173;DHT22;11252;50.596;17.648;2022-07-29T13:48:35;22.10;92.20
22173;DHT22;11252;50.596;17.648;2022-07-29T13:51:03;22.00;92.20
22173;DHT22;11252;50.596;17.648;2022-07-29T13:53:31;22.10;92.20
22173;DHT22;11252;50.596;17.648;2022-07-29T13:56:00;22.10;92.20
22173;DHT22;11252;50.596;17.648;2022-07-29T13:58:27;22.10;92.20
22173;DHT22;11252;50.596;17.648;2022-07-29T14:00:56;22.00;92.20
22173;DHT22;11252;50.596;17.648;2022-07-29T14:03:24;21.90;92.20
22173;DHT22;11252;50.596;17.648;2022-07-29T14:05:52;21.90;92.20
22173;DHT22;11252;50.596;17.648;2022-07-29T14:08:21;21.90;92.20
22173;DHT22;11252;50.596;17.648;2022-07-29T14:10:49;21.80;92.20
22173;DHT22;11252;50.596;17.648;2022-07-29T14:13:17;21.80;92.20
22173;DHT22;11252;50.596;17.648;2022-07-29T14:15:51;21.60;92.20
22173;DHT22;11252;50.596;17.648;2022-07-29T14:18:19;21.50;92.20
22173;DHT22;11252;50.596;17.648;2022-07-29T14:20:46;21.40;92.20
22173;DHT22;11252;50.596;17.648;2022-07-29T14:23:14;21.30;92.20
22173;DHT22;11252;50.596;17.648;2022-07-29T14:25:45;21.30;92.20
22173;DHT22;11252;50.596;17.648;2022-07-29T14:28:16;21.20;92.20
22173;DHT22;11252;50.596;17.648;2022-07-29T14:30:45;21.10;92.20
22173;DHT22;11252;50.596;17.648;2022-07-29T14:33:13;21.00;92.20
22173;DHT22;11252;50.596;17.648;2022-07-29T14:35:41;21.00;92.20
22173;DHT22;11252;50.596;17.648;2022-07-29T14:38:09;20.90;92.20
22173;DHT22;11252;50.596;17.648;2022-07-29T14:40:37;20.90;92.20
22173;DHT22;11252;50.596;17.648;2022-07-29T14:43:05;20.90;92.20
22173;DHT22;11252;50.596;17.648;2022-07-29T14:45:33;20.80;92.20
22173;DHT22;11252;50.596;17.648;2022-07-29T14:48:01;20.80;92.20
22173;DHT22;11252;50.596;17.648;2022-07-29T14:50:29;20.80;92.20
22173;DHT22;11252;50.596;17.648;2022-07-29T14:52:59;20.80;92.20
22173;DHT22;11252;50.596;17.648;2022-07-29T14:55:27;20.80;92.20
22173;DHT22;11252;50.596;17.648;2022-07-29T14:57:56;20.80;92.20
22173;DHT22;11252;50.596;17.648;2022-07-29T15:00:36;20.70;92.20
22173;DHT22;11252;50.596;17.648;2022-07-29T15:03:05;20.70;92.20
22173;DHT22;11252;50.596;17.648;2022-07-29T15:05:37;20.70;92.20
22173;DHT22;11252;50.596;17.648;2022-07-29T15:08:05;20.80;92.20
22173;DHT22;11252;50.596;17.648;2022-07-29T15:10:35;20.80;92.20
22173;DHT22;11252;50.596;17.648;2022-07-29T15:13:03;20.80;92.20
22173;DHT22;11252;50.596;17.648;2022-07-29T15:15:31;20.80;92.20
22173;DHT22;11252;50.596;17.648;2022-07-29T15:17:59;20.80;92.20
22173;DHT22;11252;50.596;17.648;2022-07-29T15:20:27;20.80;92.20
22173;DHT22;11252;50.596;17.648;2022-07-29T15:22:55;20.70;92.20
22173;DHT22;11252;50.596;17.648;2022-07-29T15:25:25;20.70;92.20
22173;DHT22;11252;50.596;17.648;2022-07-29T15:27:54;20.70;92.20
22173;DHT22;11252;50.596;17.648;2022-07-29T15:30:29;20.80;92.20
22173;DHT22;11252;50.596;17.648;2022-07-29T15:33:02;20.80;92.20
22173;DHT22;11252;50.596;17.648;2022-07-29T15:35:30;20.90;92.20
22173;DHT22;11252;50.596;17.648;2022-07-29T15:37:59;20.90;92.20
22173;DHT22;11252;50.596;17.648;2022-07-29T15:40:27;21.00;92.20
22173;DHT22;11252;50.596;17.648;2022-07-29T15:42:55;21.00;92.20
22173;DHT22;11252;50.596;17.648;2022-07-29T15:45:24;21.10;92.20
22173;DHT22;11252;50.596;17.648;2022-07-29T15:47:58;21.10;92.20
22173;DHT22;11252;50.596;17.648;2022-07-29T15:50:25;21.10;92.20
22173;DHT22;11252;50.596;17.648;2022-07-29T15:52:53;21.20;92.20
22173;DHT22;11252;50.596;17.648;2022-07-29T15:55:22;21.20;92.20
22173;DHT22;11252;50.596;17.648;2022-07-29T15:57:50;21.30;92.20
22173;DHT22;11252;50.596;17.648;2022-07-29T16:00:24;21.20;92.20
22173;DHT22;11252;50.596;17.648;2022-07-29T16:02:52;21.20;92.20
22173;DHT22;11252;50.596;17.648;2022-07-29T16:05:20;21.20;92.20
22173;DHT22;11252;50.596;17.648;2022-07-29T16:07:48;21.20;92.20
22173;DHT22;11252;50.596;17.648;2022-07-29T16:10:15;21.20;92.20
22173;DHT22;11252;50.596;17.648;2022-07-29T16:12:44;21.20;92.20
22173;DHT22;11252;50.596;17.648;2022-07-29T16:15:14;21.20;92.20
22173;DHT22;11252;50.596;17.648;2022-07-29T16:17:42;21.10;92.20
22173;DHT22;11252;50.596;17.648;2022-07-29T16:20:10;21.10;92.20
22173;DHT22;11252;50.596;17.648;2022-07-29T16:22:39;21.20;92.20
22173;DHT22;11252;50.596;17.648;2022-07-29T16:25:08;21.20;92.20
22173;DHT22;11252;50.596;17.648;2022-07-29T16:27:36;21.20;92.20
22173;DHT22;11252;50.596;17.648;2022-07-29T16:30:07;21.10;92.20
22173;DHT22;11252;50.596;17.648;2022-07-29T16:32:38;21.20;92.20